createdAt,value
2023-05-22T00:00:29.860Z,100.00
2023-05-22T00:01:29.818Z,100.00
2023-05-22T00:02:29.875Z,100.00
2023-05-22T00:03:29.881Z,100.00
2023-05-22T00:04:29.804Z,100.00
2023-05-22T00:05:27.902Z,100.00
2023-05-22T00:06:29.773Z,100.00
2023-05-22T00:07:29.751Z,100.00
2023-05-22T00:08:30.092Z,100.00
2023-05-22T00:09:29.733Z,100.00
2023-05-22T00:10:29.755Z,100.00
2023-05-22T00:11:29.688Z,100.00
2023-05-22T00:12:32.062Z,100.00
2023-05-22T00:13:29.679Z,100.00
2023-05-22T00:14:29.652Z,100.00
2023-05-22T00:15:29.647Z,100.00
2023-05-22T00:16:30.243Z,100.00
2023-05-22T00:17:29.666Z,100.00
2023-05-22T00:18:29.104Z,100.00
2023-05-22T00:19:29.648Z,100.00
2023-05-22T00:20:29.113Z,100.00
2023-05-22T00:21:29.577Z,100.00
2023-05-22T00:22:29.592Z,100.00
2023-05-22T00:23:30.160Z,100.00
2023-05-22T00:24:29.885Z,100.00
2023-05-22T00:25:29.540Z,100.00
2023-05-22T00:26:29.039Z,100.00
2023-05-22T00:27:29.476Z,100.00
2023-05-22T00:28:29.502Z,100.00
2023-05-22T00:29:29.433Z,100.00
2023-05-22T00:30:28.036Z,100.00
2023-05-22T00:31:28.933Z,100.00
2023-05-22T00:32:29.444Z,100.00
2023-05-22T00:33:29.388Z,100.00
2023-05-22T00:34:29.427Z,100.00
2023-05-22T00:35:29.369Z,100.00
2023-05-22T00:36:29.415Z,100.00
2023-05-22T00:37:29.358Z,100.00
2023-05-22T00:38:29.334Z,100.00
2023-05-22T00:39:29.315Z,100.00
2023-05-22T00:40:29.280Z,100.00
2023-05-22T00:41:29.291Z,100.00
2023-05-22T00:42:29.314Z,100.00
2023-05-22T00:43:29.263Z,100.00
2023-05-22T00:44:29.260Z,100.00
2023-05-22T00:45:27.385Z,100.00
2023-05-22T00:46:29.279Z,100.00
2023-05-22T00:47:29.260Z,100.00
2023-05-22T00:48:29.202Z,100.00
2023-05-22T00:49:27.242Z,100.00
2023-05-22T00:50:32.208Z,100.00
2023-05-22T00:51:29.150Z,100.00
2023-05-22T00:52:29.141Z,100.00
2023-05-22T00:53:29.115Z,100.00
2023-05-22T00:54:28.644Z,100.00
2023-05-22T00:55:28.630Z,100.00
2023-05-22T00:56:29.143Z,100.00
2023-05-22T00:57:29.081Z,100.00
2023-05-22T00:58:29.048Z,100.00
2023-05-22T00:59:29.567Z,100.00
2023-05-22T01:00:29.024Z,100.00
2023-05-22T01:01:29.017Z,100.00
2023-05-22T01:02:29.019Z,100.00
2023-05-22T01:03:29.029Z,100.00
2023-05-22T01:04:28.960Z,100.00
2023-05-22T01:05:27.065Z,100.00
2023-05-22T01:06:28.934Z,100.00
2023-05-22T01:07:26.991Z,100.00
2023-05-22T01:08:28.913Z,100.00
2023-05-22T01:09:28.936Z,100.00
2023-05-22T01:10:27.014Z,100.00
2023-05-22T01:11:28.369Z,100.00
2023-05-22T01:12:28.871Z,100.00
2023-05-22T01:13:28.852Z,100.00
2023-05-22T01:14:28.858Z,100.00
2023-05-22T01:15:27.001Z,100.00
2023-05-22T01:16:28.833Z,100.00
2023-05-22T01:17:28.934Z,100.00
2023-05-22T01:18:29.056Z,100.00
2023-05-22T01:19:29.101Z,100.00
2023-05-22T01:20:28.741Z,100.00
2023-05-22T01:21:28.724Z,100.00
2023-05-22T01:22:28.734Z,100.00
2023-05-22T01:23:28.675Z,100.00
2023-05-22T01:24:28.724Z,100.00
2023-05-22T01:25:26.806Z,100.00
2023-05-22T01:26:28.670Z,100.00
2023-05-22T01:27:28.658Z,100.00
2023-05-22T01:28:28.644Z,100.00
2023-05-22T01:29:28.472Z,100.00
2023-05-22T01:30:28.601Z,100.00
2023-05-22T01:31:28.648Z,100.00
2023-05-22T01:32:28.649Z,100.00
2023-05-22T01:33:28.941Z,100.00
2023-05-22T01:34:28.553Z,100.00
2023-05-22T01:35:28.544Z,100.00
2023-05-22T01:36:28.790Z,100.00
2023-05-22T01:37:28.564Z,100.00
2023-05-22T01:38:28.515Z,100.00
2023-05-22T01:39:28.504Z,100.00
2023-05-22T01:40:27.964Z,100.00
2023-05-22T01:41:28.456Z,100.00
2023-05-22T01:42:27.956Z,100.00
2023-05-22T01:43:27.947Z,100.00
2023-05-22T01:44:28.453Z,100.00
2023-05-22T01:45:28.322Z,100.00
2023-05-22T01:46:28.419Z,100.00
2023-05-22T01:47:28.455Z,100.00
2023-05-22T01:48:28.346Z,100.00
2023-05-22T01:49:28.680Z,100.00
2023-05-22T01:50:28.342Z,100.00
2023-05-22T01:51:28.313Z,100.00
2023-05-22T01:52:28.318Z,100.00
2023-05-22T01:53:28.613Z,100.00
2023-05-22T01:54:28.349Z,100.00
2023-05-22T01:55:28.282Z,100.00
2023-05-22T01:56:28.251Z,100.00
2023-05-22T01:57:28.252Z,100.00
2023-05-22T01:58:28.226Z,100.00
2023-05-22T01:59:28.511Z,100.00
2023-05-22T02:00:28.208Z,100.00
2023-05-22T02:01:28.235Z,100.00
2023-05-22T02:02:28.284Z,100.00
2023-05-22T02:03:28.231Z,100.00
2023-05-22T02:04:28.119Z,100.00
2023-05-22T02:05:28.487Z,100.00
2023-05-22T02:06:28.200Z,100.00
2023-05-22T02:07:28.115Z,100.00
2023-05-22T02:08:28.114Z,100.00
2023-05-22T02:09:28.365Z,100.00
2023-05-22T02:10:28.080Z,100.00
2023-05-22T02:11:28.076Z,100.00
2023-05-22T02:12:28.063Z,100.00
2023-05-22T02:13:28.055Z,100.00
2023-05-22T02:14:28.026Z,100.00
2023-05-22T02:15:28.091Z,100.00
2023-05-22T02:16:28.084Z,100.00
2023-05-22T02:17:28.335Z,100.00
2023-05-22T02:18:28.256Z,100.00
2023-05-22T02:19:28.303Z,100.00
2023-05-22T02:20:27.956Z,100.00
2023-05-22T02:21:27.945Z,100.00
2023-05-22T02:22:27.919Z,100.00
2023-05-22T02:23:26.388Z,100.00
2023-05-22T02:24:28.209Z,100.00
2023-05-22T02:25:27.925Z,100.00
2023-05-22T02:26:27.859Z,100.00
2023-05-22T02:27:27.830Z,100.00
2023-05-22T02:28:27.838Z,100.00
2023-05-22T02:29:27.826Z,100.00
2023-05-22T02:30:27.886Z,100.00
2023-05-22T02:31:27.875Z,100.00
2023-05-22T02:32:27.812Z,100.00
2023-05-22T02:33:27.795Z,100.00
2023-05-22T02:34:26.714Z,100.00
2023-05-22T02:35:27.760Z,100.00
2023-05-22T02:36:27.729Z,100.00
2023-05-22T02:37:28.017Z,100.00
2023-05-22T02:38:29.781Z,100.00
2023-05-22T02:39:27.750Z,100.00
2023-05-22T02:40:27.683Z,100.00
2023-05-22T02:41:27.964Z,100.00
2023-05-22T02:42:27.639Z,100.00
2023-05-22T02:43:27.672Z,100.00
2023-05-22T02:44:27.649Z,100.00
2023-05-22T02:45:27.596Z,100.00
2023-05-22T02:46:27.627Z,100.00
2023-05-22T02:47:27.600Z,100.00
2023-05-22T02:48:27.550Z,100.00
2023-05-22T02:49:27.547Z,100.00
2023-05-22T02:50:27.522Z,100.00
2023-05-22T02:51:27.512Z,100.00
2023-05-22T02:52:27.480Z,100.00
2023-05-22T02:53:25.575Z,100.00
2023-05-22T02:54:27.468Z,100.00
2023-05-22T02:55:27.488Z,100.00
2023-05-22T02:56:27.448Z,100.00
2023-05-22T02:57:27.733Z,100.00
2023-05-22T02:58:27.446Z,100.00
2023-05-22T02:59:27.436Z,100.00
2023-05-22T03:00:27.397Z,100.00
2023-05-22T03:01:27.456Z,100.00
2023-05-22T03:02:27.442Z,100.00
2023-05-22T03:03:27.491Z,100.00
2023-05-22T03:04:27.337Z,100.00
2023-05-22T03:05:27.328Z,100.00
2023-05-22T03:06:27.373Z,100.00
2023-05-22T03:07:27.308Z,100.00
2023-05-22T03:08:27.296Z,100.00
2023-05-22T03:09:27.260Z,100.00
2023-05-22T03:10:27.330Z,100.00
2023-05-22T03:11:27.606Z,100.00
2023-05-22T03:12:25.353Z,100.00
2023-05-22T03:13:27.222Z,100.00
2023-05-22T03:14:27.217Z,100.00
2023-05-22T03:15:27.177Z,100.00
2023-05-22T03:16:27.256Z,100.00
2023-05-22T03:17:27.226Z,100.00
2023-05-22T03:18:27.553Z,100.00
2023-05-22T03:19:27.468Z,100.00
2023-05-22T03:20:26.906Z,100.00
2023-05-22T03:21:27.126Z,100.00
2023-05-22T03:22:27.191Z,100.00
2023-05-22T03:23:27.175Z,100.00
2023-05-22T03:24:27.074Z,100.00
2023-05-22T03:25:27.126Z,100.00
2023-05-22T03:26:27.068Z,100.00
2023-05-22T03:27:27.096Z,100.00
2023-05-22T03:28:27.003Z,100.00
2023-05-22T03:29:27.003Z,100.00
2023-05-22T03:30:26.989Z,100.00
2023-05-22T03:31:25.131Z,100.00
2023-05-22T03:32:29.208Z,100.00
2023-05-22T03:33:26.971Z,100.00
2023-05-22T03:34:26.953Z,100.00
2023-05-22T03:35:26.936Z,100.00
2023-05-22T03:36:26.958Z,100.00
2023-05-22T03:37:26.987Z,100.00
2023-05-22T03:38:26.410Z,100.00
2023-05-22T03:39:26.908Z,100.00
2023-05-22T03:40:26.859Z,100.00
2023-05-22T03:41:26.911Z,100.00
2023-05-22T03:42:26.816Z,100.00
2023-05-22T03:43:26.839Z,100.00
2023-05-22T03:44:26.835Z,100.00
2023-05-22T03:45:27.590Z,100.00
2023-05-22T03:46:26.836Z,100.00
2023-05-22T03:47:26.801Z,100.00
2023-05-22T03:48:26.738Z,100.00
2023-05-22T03:49:26.737Z,100.00
2023-05-22T03:50:26.750Z,100.00
2023-05-22T03:51:26.751Z,100.00
2023-05-22T03:52:26.725Z,100.00
2023-05-22T03:53:26.212Z,100.00
2023-05-22T03:54:26.679Z,100.00
2023-05-22T03:55:26.652Z,100.00
2023-05-22T03:56:26.640Z,100.00
2023-05-22T03:57:25.993Z,100.00
2023-05-22T03:58:26.994Z,100.00
2023-05-22T03:59:26.875Z,100.00
2023-05-22T04:00:27.158Z,100.00
2023-05-22T04:01:26.552Z,100.00
2023-05-22T04:02:24.728Z,100.00
2023-05-22T04:03:26.678Z,100.00
2023-05-22T04:04:26.548Z,100.00
2023-05-22T04:05:26.626Z,100.00
2023-05-22T04:06:26.510Z,100.00
2023-05-22T04:07:26.474Z,100.00
2023-05-22T04:08:26.455Z,100.00
2023-05-22T04:09:26.475Z,100.00
2023-05-22T04:10:26.447Z,100.00
2023-05-22T04:11:26.439Z,100.00
2023-05-22T04:12:26.408Z,100.00
2023-05-22T04:13:26.397Z,100.00
2023-05-22T04:14:25.903Z,100.00
2023-05-22T04:15:26.384Z,100.00
2023-05-22T04:16:26.436Z,100.00
2023-05-22T04:17:26.402Z,100.00
2023-05-22T04:18:26.341Z,100.00
2023-05-22T04:19:27.045Z,100.00
2023-05-22T04:20:24.428Z,100.00
2023-05-22T04:21:26.891Z,100.00
2023-05-22T04:22:26.316Z,100.00
2023-05-22T04:23:26.273Z,100.00
2023-05-22T04:24:26.292Z,100.00
2023-05-22T04:25:26.283Z,100.00
2023-05-22T04:26:24.330Z,100.00
2023-05-22T04:27:26.217Z,100.00
2023-05-22T04:28:26.205Z,100.00
2023-05-22T04:29:26.256Z,100.00
2023-05-22T04:30:26.189Z,100.00
2023-05-22T04:31:26.289Z,100.00
2023-05-22T04:32:26.199Z,100.00
2023-05-22T04:33:26.184Z,100.00
2023-05-22T04:34:26.139Z,100.00
2023-05-22T04:35:26.144Z,100.00
2023-05-22T04:36:26.198Z,100.00
2023-05-22T04:37:26.075Z,100.00
2023-05-22T04:38:26.401Z,100.00
2023-05-22T04:39:26.088Z,100.00
2023-05-22T04:40:26.360Z,100.00
2023-05-22T04:41:26.301Z,100.00
2023-05-22T04:42:28.355Z,100.00
2023-05-22T04:43:26.036Z,100.00
2023-05-22T04:44:26.258Z,100.00
2023-05-22T04:45:25.489Z,100.00
2023-05-22T04:46:26.262Z,100.00
2023-05-22T04:47:25.996Z,100.00
2023-05-22T04:48:26.206Z,100.00
2023-05-22T04:49:25.919Z,100.00
2023-05-22T04:50:26.202Z,100.00
2023-05-22T04:51:25.867Z,100.00
2023-05-22T04:52:25.868Z,100.00
2023-05-22T04:53:25.862Z,100.00
2023-05-22T04:54:25.848Z,100.00
2023-05-22T04:55:25.824Z,100.00
2023-05-22T04:56:35.394Z,100.00
2023-05-22T04:57:26.806Z,100.00
2023-05-22T04:58:25.766Z,100.00
2023-05-22T04:59:25.789Z,100.00
2023-05-22T05:00:25.882Z,100.00
2023-05-22T05:01:25.793Z,99.54
2023-05-22T05:02:25.758Z,99.18
2023-05-22T05:03:25.737Z,98.94
2023-05-22T05:04:25.686Z,98.73
2023-05-22T05:05:25.676Z,98.58
2023-05-22T05:06:25.683Z,98.28
2023-05-22T05:07:25.645Z,98.05
2023-05-22T05:08:25.135Z,97.67
2023-05-22T05:09:23.667Z,97.32
2023-05-22T05:10:25.631Z,96.88
2023-05-22T05:11:25.615Z,96.58
2023-05-22T05:12:25.578Z,96.08
2023-05-22T05:13:25.577Z,95.66
2023-05-22T05:14:25.547Z,95.10
2023-05-22T05:15:25.580Z,94.93
2023-05-22T05:16:25.553Z,94.40
2023-05-22T05:17:25.493Z,94.04
2023-05-22T05:18:25.503Z,93.58
2023-05-22T05:19:25.550Z,93.13
2023-05-22T05:20:25.486Z,92.79
2023-05-22T05:21:25.457Z,92.78
2023-05-22T05:22:25.424Z,92.44
2023-05-22T05:23:25.427Z,92.05
2023-05-22T05:24:25.431Z,91.62
2023-05-22T05:25:25.410Z,91.12
2023-05-22T05:26:25.433Z,90.72
2023-05-22T05:27:25.382Z,90.45
2023-05-22T05:28:25.347Z,89.18
2023-05-22T05:29:25.361Z,88.78
2023-05-22T05:30:25.340Z,88.78
2023-05-22T05:31:25.402Z,88.84
2023-05-22T05:32:25.420Z,89.23
2023-05-22T05:33:25.296Z,89.67
2023-05-22T05:34:25.298Z,90.38
2023-05-22T05:35:25.274Z,91.01
2023-05-22T05:36:25.265Z,91.67
2023-05-22T05:37:25.247Z,92.06
2023-05-22T05:38:25.229Z,92.34
2023-05-22T05:39:25.213Z,92.57
2023-05-22T05:40:25.194Z,92.64
2023-05-22T05:41:25.194Z,92.92
2023-05-22T05:42:25.158Z,93.25
2023-05-22T05:43:25.172Z,93.52
2023-05-22T05:44:25.153Z,93.39
2023-05-22T05:45:25.134Z,93.23
2023-05-22T05:46:25.169Z,93.25
2023-05-22T05:47:25.144Z,93.33
2023-05-22T05:48:23.298Z,93.43
2023-05-22T05:49:25.065Z,93.62
2023-05-22T05:50:25.075Z,93.67
2023-05-22T05:51:25.052Z,93.66
2023-05-22T05:52:25.025Z,93.87
2023-05-22T05:53:25.040Z,93.98
2023-05-22T05:54:23.090Z,94.00
2023-05-22T05:55:24.974Z,93.88
2023-05-22T05:56:24.974Z,94.22
2023-05-22T05:57:24.972Z,94.33
2023-05-22T05:58:24.957Z,94.42
2023-05-22T05:59:24.934Z,94.58
2023-05-22T06:00:24.912Z,94.42
2023-05-22T06:01:24.920Z,94.11
2023-05-22T06:02:25.054Z,94.25
2023-05-22T06:03:24.933Z,94.27
2023-05-22T06:04:24.855Z,94.21
2023-05-22T06:05:24.901Z,94.14
2023-05-22T06:06:24.847Z,93.65
2023-05-22T06:07:24.835Z,93.55
2023-05-22T06:08:24.814Z,93.22
2023-05-22T06:09:24.802Z,92.78
2023-05-22T06:10:24.784Z,92.48
2023-05-22T06:11:24.801Z,92.23
2023-05-22T06:12:24.770Z,91.94
2023-05-22T06:13:24.753Z,91.75
2023-05-22T06:14:24.742Z,91.85
2023-05-22T06:15:24.726Z,91.74
2023-05-22T06:16:24.809Z,91.62
2023-05-22T06:17:24.740Z,91.29
2023-05-22T06:18:24.696Z,90.81
2023-05-22T06:19:24.772Z,90.23
2023-05-22T06:20:24.688Z,88.72
2023-05-22T06:21:24.710Z,87.40
2023-05-22T06:22:24.627Z,86.00
2023-05-22T06:23:24.619Z,84.85
2023-05-22T06:24:24.595Z,83.94
2023-05-22T06:25:24.606Z,83.24
2023-05-22T06:26:24.601Z,81.31
2023-05-22T06:27:24.552Z,80.39
2023-05-22T06:28:24.541Z,79.68
2023-05-22T06:29:24.542Z,78.34
2023-05-22T06:30:39.011Z,78.23
2023-05-22T06:31:25.522Z,78.45
2023-05-22T06:32:24.570Z,77.61
2023-05-22T06:33:24.535Z,76.93
2023-05-22T06:34:24.537Z,76.15
2023-05-22T06:35:24.472Z,75.78
2023-05-22T06:36:24.427Z,74.87
2023-05-22T06:37:24.423Z,74.42
2023-05-22T06:38:24.406Z,74.16
2023-05-22T06:39:24.411Z,74.12
2023-05-22T06:40:24.408Z,73.63
2023-05-22T06:41:24.359Z,73.19
2023-05-22T06:42:24.349Z,72.47
2023-05-22T06:43:24.340Z,71.92
2023-05-22T06:44:24.333Z,72.82
2023-05-22T06:45:24.339Z,73.38
2023-05-22T06:46:25.948Z,72.73
2023-05-22T06:47:24.332Z,72.49
2023-05-22T06:48:24.295Z,72.06
2023-05-22T06:49:24.269Z,71.91
2023-05-22T06:50:24.247Z,72.79
2023-05-22T06:51:24.218Z,71.63
2023-05-22T06:52:24.207Z,71.82
2023-05-22T06:53:24.202Z,71.00
2023-05-22T06:54:24.197Z,71.19
2023-05-22T06:55:24.183Z,71.18
2023-05-22T06:56:24.165Z,71.21
2023-05-22T06:57:24.188Z,70.35
2023-05-22T06:58:24.137Z,70.17
2023-05-22T06:59:24.135Z,70.46
2023-05-22T07:00:24.120Z,70.79
2023-05-22T07:01:24.129Z,70.90
2023-05-22T07:02:24.094Z,71.16
2023-05-22T07:03:24.081Z,70.93
2023-05-22T07:04:24.048Z,71.38
2023-05-22T07:05:24.069Z,70.47
2023-05-22T07:06:24.007Z,69.85
2023-05-22T07:07:24.005Z,69.35
2023-05-22T07:08:24.010Z,69.61
2023-05-22T07:09:23.977Z,70.08
2023-05-22T07:10:23.974Z,69.19
2023-05-22T07:11:23.961Z,68.78
2023-05-22T07:12:23.951Z,68.64
2023-05-22T07:13:23.930Z,69.71
2023-05-22T07:14:23.919Z,68.28
2023-05-22T07:15:23.908Z,68.91
2023-05-22T07:16:23.902Z,68.09
2023-05-22T07:17:23.912Z,68.35
2023-05-22T07:18:23.862Z,67.40
2023-05-22T07:19:23.886Z,67.09
2023-05-22T07:20:23.831Z,65.71
2023-05-22T07:21:23.879Z,66.07
2023-05-22T07:22:23.806Z,66.53
2023-05-22T07:23:25.578Z,64.98
2023-05-22T07:24:23.798Z,64.89
2023-05-22T07:25:23.762Z,64.07
2023-05-22T07:26:23.756Z,64.09
2023-05-22T07:27:23.739Z,64.36
2023-05-22T07:28:23.290Z,64.55
2023-05-22T07:29:23.702Z,64.68
2023-05-22T07:30:23.705Z,63.53
2023-05-22T07:31:23.714Z,62.85
2023-05-22T07:32:23.743Z,64.12
2023-05-22T07:33:23.647Z,63.12
2023-05-22T07:34:23.638Z,63.49
2023-05-22T07:35:23.628Z,62.35
2023-05-22T07:36:23.651Z,62.02
2023-05-22T07:37:23.626Z,61.94
2023-05-22T07:38:23.610Z,62.63
2023-05-22T07:39:23.591Z,60.42
2023-05-22T07:40:24.533Z,61.07
2023-05-22T07:41:23.561Z,61.52
2023-05-22T07:42:23.541Z,59.53
2023-05-22T07:43:23.524Z,59.55
2023-05-22T07:44:23.535Z,59.08
2023-05-22T07:45:23.497Z,58.76
2023-05-22T07:46:23.536Z,58.01
2023-05-22T07:47:23.489Z,58.55
2023-05-22T07:48:23.450Z,58.89
2023-05-22T07:49:23.447Z,57.78
2023-05-22T07:50:23.434Z,59.20
2023-05-22T07:51:23.432Z,59.43
2023-05-22T07:52:23.412Z,58.40
2023-05-22T07:53:23.398Z,57.82
2023-05-22T07:54:23.373Z,57.81
2023-05-22T07:55:23.378Z,57.15
2023-05-22T07:56:23.355Z,57.09
2023-05-22T07:57:23.349Z,56.03
2023-05-22T07:58:23.340Z,55.13
2023-05-22T07:59:23.084Z,55.94
2023-05-22T08:00:23.308Z,56.82
2023-05-22T08:01:23.375Z,55.99
2023-05-22T08:02:23.339Z,55.84
2023-05-22T08:03:24.353Z,57.33
2023-05-22T08:04:23.328Z,55.83
2023-05-22T08:05:23.306Z,54.69
2023-05-22T08:06:23.234Z,53.91
2023-05-22T08:07:23.198Z,54.00
2023-05-22T08:08:23.217Z,54.24
2023-05-22T08:09:23.182Z,53.90
2023-05-22T08:10:23.213Z,54.99
2023-05-22T08:11:23.146Z,55.07
2023-05-22T08:12:23.144Z,53.96
2023-05-22T08:13:23.142Z,53.37
2023-05-22T08:14:23.111Z,52.41
2023-05-22T08:15:23.102Z,52.27
2023-05-22T08:16:23.135Z,51.94
2023-05-22T08:17:26.885Z,52.05
2023-05-22T08:18:23.076Z,52.49
2023-05-22T08:19:23.193Z,53.43
2023-05-22T08:20:23.068Z,54.24
2023-05-22T08:21:23.027Z,55.51
2023-05-22T08:22:23.300Z,54.09
2023-05-22T08:23:23.079Z,54.14
2023-05-22T08:24:22.995Z,54.57
2023-05-22T08:25:22.969Z,54.59
2023-05-22T08:26:22.959Z,55.96
2023-05-22T08:27:22.959Z,54.51
2023-05-22T08:28:22.967Z,53.77
2023-05-22T08:29:22.941Z,54.04
2023-05-22T08:30:22.929Z,54.21
2023-05-22T08:31:22.961Z,56.19
2023-05-22T08:32:22.919Z,53.84
2023-05-22T08:33:22.880Z,53.30
2023-05-22T08:34:22.865Z,51.63
2023-05-22T08:35:22.854Z,52.19
2023-05-22T08:36:22.842Z,52.20
2023-05-22T08:37:22.848Z,53.30
2023-05-22T08:38:22.829Z,53.10
2023-05-22T08:39:22.784Z,52.57
2023-05-22T08:40:22.791Z,54.46
2023-05-22T08:41:22.766Z,55.37
2023-05-22T08:42:22.797Z,56.06
2023-05-22T08:43:20.837Z,55.44
2023-05-22T08:44:22.730Z,55.39
2023-05-22T08:45:22.721Z,55.64
2023-05-22T08:46:22.785Z,55.96
2023-05-22T08:47:22.731Z,55.51
2023-05-22T08:48:22.690Z,53.76
2023-05-22T08:49:23.934Z,53.08
2023-05-22T08:50:22.669Z,52.22
2023-05-22T08:51:22.683Z,52.46
2023-05-22T08:52:22.663Z,51.05
2023-05-22T08:53:22.661Z,50.82
2023-05-22T08:54:22.603Z,49.49
2023-05-22T08:55:22.620Z,48.82
2023-05-22T08:56:22.601Z,47.23
2023-05-22T08:57:22.564Z,46.05
2023-05-22T08:58:22.553Z,45.29
2023-05-22T08:59:22.692Z,44.81
2023-05-22T09:00:22.525Z,44.20
2023-05-22T09:01:22.587Z,43.41
2023-05-22T09:02:22.528Z,43.74
2023-05-22T09:03:22.576Z,45.05
2023-05-22T09:04:22.504Z,43.25
2023-05-22T09:05:22.480Z,42.42
2023-05-22T09:06:22.494Z,41.94
2023-05-22T09:07:22.452Z,44.12
2023-05-22T09:08:22.488Z,42.14
2023-05-22T09:09:22.456Z,42.13
2023-05-22T09:10:22.473Z,43.96
2023-05-22T09:11:22.401Z,43.68
2023-05-22T09:12:22.515Z,41.43
2023-05-22T09:13:22.369Z,42.84
2023-05-22T09:14:22.361Z,43.39
2023-05-22T09:15:22.392Z,44.90
2023-05-22T09:16:22.390Z,44.77
2023-05-22T09:17:21.931Z,46.08
2023-05-22T09:18:22.305Z,45.03
2023-05-22T09:19:22.330Z,46.83
2023-05-22T09:22:24.370Z,48.04
2023-05-22T09:23:22.245Z,48.15
2023-05-22T09:24:22.270Z,47.20
2023-05-22T09:25:22.256Z,45.90
2023-05-22T09:26:22.231Z,47.59
2023-05-22T09:27:22.225Z,47.41
2023-05-22T09:28:22.189Z,46.54
2023-05-22T09:29:22.201Z,44.70
2023-05-22T09:30:22.225Z,46.13
2023-05-22T09:31:22.193Z,45.22
2023-05-22T09:32:22.264Z,43.06
2023-05-22T09:33:22.167Z,43.61
2023-05-22T09:34:22.177Z,41.56
2023-05-22T09:35:22.103Z,42.59
2023-05-22T09:36:22.125Z,44.61
2023-05-22T09:37:22.077Z,41.43
2023-05-22T09:38:22.093Z,42.69
2023-05-22T09:39:22.062Z,42.36
2023-05-22T09:40:22.053Z,42.13
2023-05-22T09:41:22.060Z,43.81
2023-05-22T09:42:22.046Z,45.27
2023-05-22T09:43:22.015Z,47.17
2023-05-22T09:44:21.995Z,44.27
2023-05-22T09:45:21.970Z,43.86
2023-05-22T09:46:22.001Z,44.24
2023-05-22T09:47:21.940Z,42.47
2023-05-22T09:48:21.948Z,42.29
2023-05-22T09:49:21.943Z,43.67
2023-05-22T09:50:22.009Z,42.83
2023-05-22T09:51:21.906Z,41.47
2023-05-22T09:52:21.913Z,42.06
2023-05-22T09:53:21.428Z,42.37
2023-05-22T09:54:21.860Z,41.80
2023-05-22T09:55:21.858Z,42.00
2023-05-22T09:56:30.814Z,44.13
2023-05-22T09:57:22.856Z,41.38
2023-05-22T09:58:21.822Z,40.90
2023-05-22T09:59:21.819Z,41.77
2023-05-22T10:00:21.871Z,40.76
2023-05-22T10:01:21.824Z,42.24
2023-05-22T10:02:21.814Z,42.25
2023-05-22T10:03:21.764Z,41.97
2023-05-22T10:04:21.819Z,40.09
2023-05-22T10:05:21.969Z,40.86
2023-05-22T10:06:21.714Z,41.13
2023-05-22T10:07:21.747Z,42.08
2023-05-22T10:08:21.700Z,42.12
2023-05-22T10:09:21.680Z,42.67
2023-05-22T10:10:21.746Z,44.93
2023-05-22T10:11:21.719Z,44.27
2023-05-22T10:12:21.656Z,43.74
2023-05-22T10:13:21.659Z,42.16
2023-05-22T10:14:21.635Z,41.29
2023-05-22T10:15:21.625Z,43.19
2023-05-22T10:16:21.645Z,43.87
2023-05-22T10:17:21.645Z,42.99
2023-05-22T10:18:21.591Z,43.68
2023-05-22T10:19:21.640Z,41.94
2023-05-22T10:20:21.589Z,42.41
2023-05-22T10:21:21.573Z,44.18
2023-05-22T10:22:21.558Z,46.04
2023-05-22T10:23:21.527Z,48.78
2023-05-22T10:24:21.517Z,49.06
2023-05-22T10:25:21.498Z,49.29
2023-05-22T10:26:21.528Z,51.46
2023-05-22T10:27:21.483Z,52.28
2023-05-22T10:28:21.461Z,52.51
2023-05-22T10:29:21.464Z,52.65
2023-05-22T10:30:21.519Z,51.88
2023-05-22T10:31:21.433Z,54.04
2023-05-22T10:32:21.490Z,53.70
2023-05-22T10:33:21.494Z,53.12
2023-05-22T10:34:21.392Z,54.04
2023-05-22T10:35:21.397Z,54.55
2023-05-22T10:36:21.373Z,55.22
2023-05-22T10:37:21.348Z,54.67
2023-05-22T10:38:21.348Z,54.49
2023-05-22T10:39:21.342Z,55.32
2023-05-22T10:40:21.390Z,52.21
2023-05-22T10:41:21.322Z,50.76
2023-05-22T10:42:21.292Z,49.53
2023-05-22T10:43:21.283Z,48.71
2023-05-22T10:44:21.263Z,49.78
2023-05-22T10:45:21.266Z,51.31
2023-05-22T10:46:21.313Z,52.33
2023-05-22T10:47:21.327Z,51.31
2023-05-22T10:48:21.227Z,51.86
2023-05-22T10:49:21.200Z,49.62
2023-05-22T10:50:21.193Z,49.87
2023-05-22T10:51:21.170Z,49.60
2023-05-22T10:52:21.231Z,50.26
2023-05-22T10:53:21.150Z,48.45
2023-05-22T10:54:21.166Z,48.28
2023-05-22T10:55:21.135Z,46.18
2023-05-22T10:56:22.928Z,45.92
2023-05-22T10:57:21.098Z,45.78
2023-05-22T10:58:21.095Z,45.79
2023-05-22T10:59:21.086Z,46.52
2023-05-22T11:00:21.139Z,45.56
2023-05-22T11:01:21.068Z,45.83
2023-05-22T11:02:21.181Z,45.45
2023-05-22T11:03:20.552Z,47.35
2023-05-22T11:04:21.061Z,48.22
2023-05-22T11:05:21.005Z,49.61
2023-05-22T11:06:21.001Z,50.92
2023-05-22T11:07:20.973Z,52.24
2023-05-22T11:08:20.997Z,53.46
2023-05-22T11:09:21.112Z,54.22
2023-05-22T11:10:20.995Z,54.29
2023-05-22T11:11:20.936Z,54.37
2023-05-22T11:12:20.978Z,54.61
2023-05-22T11:13:20.910Z,54.78
2023-05-22T11:14:20.957Z,53.90
2023-05-22T11:15:20.888Z,53.52
2023-05-22T11:16:20.855Z,54.19
2023-05-22T11:17:20.850Z,54.24
2023-05-22T11:18:20.896Z,53.78
2023-05-22T11:19:23.802Z,53.57
2023-05-22T11:20:20.820Z,52.53
2023-05-22T11:21:20.802Z,50.88
2023-05-22T11:22:20.788Z,48.82
2023-05-22T11:23:20.781Z,48.88
2023-05-22T11:24:20.751Z,48.67
2023-05-22T11:25:20.768Z,49.85
2023-05-22T11:26:20.739Z,48.65
2023-05-22T11:27:20.746Z,50.19
2023-05-22T11:28:20.746Z,52.60
2023-05-22T11:29:20.701Z,55.09
2023-05-22T11:30:20.749Z,56.50
2023-05-22T11:31:20.718Z,56.28
2023-05-22T11:32:20.711Z,56.50
2023-05-22T11:33:20.753Z,57.50
2023-05-22T11:34:20.641Z,57.26
2023-05-22T11:35:20.635Z,57.85
2023-05-22T11:36:20.632Z,58.12
2023-05-22T11:37:20.641Z,58.74
2023-05-22T11:38:20.588Z,58.32
2023-05-22T11:39:20.572Z,59.64
2023-05-22T11:40:20.563Z,59.81
2023-05-22T11:41:20.563Z,59.19
2023-05-22T11:42:20.580Z,58.96
2023-05-22T11:43:20.522Z,60.06
2023-05-22T11:44:20.062Z,59.60
2023-05-22T11:45:20.561Z,60.10
2023-05-22T11:46:20.550Z,59.82
2023-05-22T11:47:20.520Z,59.81
2023-05-22T11:48:20.451Z,60.09
2023-05-22T11:49:20.442Z,59.46
2023-05-22T11:50:33.473Z,59.60
2023-05-22T11:51:21.408Z,59.77
2023-05-22T11:52:20.418Z,61.00
2023-05-22T11:53:20.374Z,60.70
2023-05-22T11:54:20.346Z,61.17
2023-05-22T11:55:20.348Z,61.52
2023-05-22T11:56:20.348Z,61.43
2023-05-22T11:57:20.342Z,61.53
2023-05-22T11:58:20.340Z,62.07
2023-05-22T11:59:20.286Z,62.86
2023-05-22T12:00:20.337Z,62.79
2023-05-22T12:01:20.278Z,62.50
2023-05-22T12:02:20.263Z,62.47
2023-05-22T12:03:20.300Z,62.37
2023-05-22T12:04:20.267Z,63.08
2023-05-22T12:05:20.225Z,63.52
2023-05-22T12:06:20.321Z,65.05
2023-05-22T12:07:19.713Z,64.38
2023-05-22T12:08:20.182Z,65.08
2023-05-22T12:09:20.163Z,65.89
2023-05-22T12:10:20.145Z,67.85
2023-05-22T12:11:20.166Z,67.25
2023-05-22T12:12:22.248Z,68.18
2023-05-22T12:13:20.144Z,69.02
2023-05-22T12:14:20.101Z,68.92
2023-05-22T12:15:20.131Z,70.27
2023-05-22T12:16:20.254Z,70.13
2023-05-22T12:17:20.059Z,71.60
2023-05-22T12:18:20.041Z,72.88
2023-05-22T12:19:20.056Z,73.19
2023-05-22T12:20:22.417Z,75.47
2023-05-22T12:21:20.001Z,75.31
2023-05-22T12:23:19.957Z,78.58
2023-05-22T12:24:19.938Z,80.46
2023-05-22T12:25:19.963Z,81.51
2023-05-22T12:26:19.910Z,83.15
2023-05-22T12:27:19.902Z,84.17
2023-05-22T12:28:19.917Z,86.10
2023-05-22T12:29:19.927Z,87.52
2023-05-22T12:30:19.914Z,88.02
2023-05-22T12:31:19.856Z,88.63
2023-05-22T12:32:19.983Z,88.89
2023-05-22T12:33:19.890Z,88.95
2023-05-22T12:34:19.838Z,90.14
2023-05-22T12:35:19.874Z,90.92
2023-05-22T12:36:18.689Z,91.55
2023-05-22T12:37:19.792Z,91.47
2023-05-22T12:38:19.781Z,91.12
2023-05-22T12:39:19.757Z,91.11
2023-05-22T12:40:19.827Z,91.58
2023-05-22T12:41:19.733Z,91.86
2023-05-22T12:42:19.707Z,92.64
2023-05-22T12:43:19.696Z,93.05
2023-05-22T12:44:19.694Z,93.30
2023-05-22T12:45:19.677Z,93.53